Terminal Aerodrome Forecast
Issued by NWS Houston/Galveston TX

Home | Current Version | Previous Version | Text Only | Print | Product List | Glossary On
Versions: 1 2 3 4 5 6 7 8 9 10 11 12 13 14 15 16 17 18 19 20 21 22 23 24 25 26 27 28 29 30 31 32 33 34 35 36 37
000
FTUS44 KHGX 190313 AAB
TAFHOU
TAF AMD
KHOU 190313Z 1903/1924 13006KT P6SM BKN014
      TEMPO 1904/1906 4SM BR BKN004
     FM190600 14005KT 4SM BR SCT003 OVC007
      TEMPO 1909/1913 2SM BR BKN004
     FM191500 13008KT P6SM SCT008 OVC015
     FM191700 13008KT P6SM BKN025
     FM191900 14016KT P6SM BKN035=

USA.gov is the U.S. government's official web portal to all federal, state and local government web resources and services.